Terminal Aerodrome Forecast
Issued by NWS Topeka, KS

Home | Current Version | Previous Version | Graphics & Text | Print | Product List | Glossary On
Versions: 1 2 3 4 5 6 7 8 9 10 11 12 13 14
000
FTUS43 KTOP 211100
TAFTOP
TAF
KTOP 211120Z 2112/2212 18008KT P6SM FEW150
     FM211500 19013G22KT P6SM SCT150
     FM220100 18009KT P6SM SCT150=

USA.gov is the U.S. government's official web portal to all federal, state and local government web resources and services.